Aérodrome :
LOGIN :

S'inscrire | Disclaimer

   EN    FR    IT 

 










Légende :    VFR   VFR Marginal   IFR   IFR Intensif   IFR Très Intensif
Visi : 
Plafond : 
>= 8 km
>= 3000ft
5 à 8 km
1000 à 3000 ft
1500m à 5 km
500 à 1000 ft
800 à 1500m
200 à 500 ft
< 800m
< 200 ft
Symboles :   Orages  Brouillard  Fortes neiges  Fortes précipitations  Vent > 20 kt
SIGMETs :   Divers  Orages  Givrage  Turbulence  Onde Orograph.  Cendres Volcan.






- Altitude de l'aérodrome : 120 ft
- Code IATA : MME


EGNV - Durham Tees valley

DERNIER METAR :
  • 221520Z 12008KT 9999 FEW016 SCT023 07/05 Q0996

METARs EXPIRÉS :
  • 221450Z 13007KT 9999 FEW016 BKN021 07/05 Q0996
  • 221420Z 13009KT 9999 SCT013 SCT020 08/06 Q0996
  • 221350Z 13006KT 100V170 9999 SCT013 SCT025 08/06 Q0996
  • 221320Z 14008KT 9999 SCT013 BKN022 08/06 Q0996
  • 221250Z 14011KT 9999 FEW010 BKN015 08/06 Q0996

TAF TAF EGNV
Valide du 22 à 15h jusqu'au 22 à 22h UTC


221356Z 2215/2222 14010KT 9999 FEW012 SCT020
TEMPO 2215/2217 8000 -RADZ BKN008
BECMG 2216/2219 08008KT
TEMPO 2217/2222 6000 RA BKN012
ATIS : +44 9012 018 111



MET'MAP, la Météo Aéronautique d'un coup d'oeil ! - Copyright ORBIFLY Décembre 2007 - Disclaimer

ORBIFLY MET'MAP TEAM :

Programmation & Développement : Alexandra Zaïnal
Conception & Développement : Baudouin d'Aumeries
Co-Programmation & Développement : Marc-Olivier Méhu
Soutien technique & logistique : Manuel Goepfert

Contact : metmap@orbifly.com




SOURCES & CREDITS :

   NOAA